createdAt,value
2022-07-31T00:00:34.597Z,69.55
2022-07-31T00:01:33.649Z,69.42
2022-07-31T00:02:33.549Z,69.48
2022-07-31T00:03:33.716Z,69.53
2022-07-31T00:04:33.528Z,69.26
2022-07-31T00:05:38.784Z,69.14
2022-07-31T00:06:34.520Z,69.20
2022-07-31T00:07:33.651Z,69.08
2022-07-31T00:08:33.475Z,69.44
2022-07-31T00:09:49.259Z,69.18
2022-07-31T00:10:34.571Z,68.79
2022-07-31T00:11:33.455Z,69.24
2022-07-31T00:12:33.652Z,68.90
2022-07-31T00:13:56.493Z,69.09
2022-07-31T00:14:34.391Z,68.90
2022-07-31T00:15:33.493Z,68.94
2022-07-31T00:16:33.362Z,68.83
2022-07-31T00:17:33.572Z,69.20
2022-07-31T00:18:33.342Z,69.04
2022-07-31T00:19:33.462Z,68.69
2022-07-31T00:20:33.311Z,68.59
2022-07-31T00:21:33.395Z,68.31
2022-07-31T00:22:33.284Z,68.44
2022-07-31T00:23:33.382Z,68.08
2022-07-31T00:24:33.263Z,68.07
2022-07-31T00:25:33.371Z,68.39
2022-07-31T00:26:33.242Z,68.28
2022-07-31T00:27:33.314Z,68.43
2022-07-31T00:28:33.204Z,68.56
2022-07-31T00:29:33.295Z,68.09
2022-07-31T00:30:33.197Z,68.28
2022-07-31T00:31:33.275Z,68.00
2022-07-31T00:32:34.144Z,67.85
2022-07-31T00:33:33.312Z,68.08
2022-07-31T00:34:33.124Z,68.04
2022-07-31T00:35:34.323Z,68.54
2022-07-31T00:36:33.105Z,68.13
2022-07-31T00:37:33.175Z,68.38
2022-07-31T00:38:33.066Z,68.22
2022-07-31T00:39:33.114Z,68.25
2022-07-31T00:40:33.034Z,68.28
2022-07-31T00:41:33.305Z,68.34
2022-07-31T00:42:33.012Z,68.41
2022-07-31T00:43:33.185Z,68.38
2022-07-31T00:44:32.984Z,68.34
2022-07-31T00:45:33.117Z,68.67
2022-07-31T00:46:32.955Z,68.48
2022-07-31T00:47:33.005Z,68.51
2022-07-31T00:48:32.936Z,68.84
2022-07-31T00:49:37.687Z,68.80
2022-07-31T00:50:33.904Z,68.58
2022-07-31T00:51:33.034Z,68.17
2022-07-31T00:52:32.884Z,68.07
2022-07-31T00:53:33.025Z,68.58
2022-07-31T00:54:32.856Z,68.51
2022-07-31T00:55:32.896Z,68.68
2022-07-31T00:56:33.825Z,68.66
2022-07-31T00:57:32.936Z,68.49
2022-07-31T00:58:32.797Z,68.30
2022-07-31T00:59:32.916Z,68.25
2022-07-31T01:00:32.788Z,68.47
2022-07-31T01:01:32.921Z,68.78
2022-07-31T01:02:32.738Z,68.81
2022-07-31T01:03:32.945Z,68.90
2022-07-31T01:04:32.717Z,68.65
2022-07-31T01:05:32.827Z,68.80
2022-07-31T01:06:32.697Z,68.85
2022-07-31T01:07:32.809Z,68.81
2022-07-31T01:08:32.670Z,68.65
2022-07-31T01:09:32.759Z,68.80
2022-07-31T01:10:32.642Z,68.81
2022-07-31T01:11:32.829Z,68.58
2022-07-31T01:12:32.608Z,68.47
2022-07-31T01:13:32.718Z,68.46
2022-07-31T01:14:32.580Z,68.56
2022-07-31T01:15:32.656Z,68.57
2022-07-31T01:16:32.558Z,68.60
2022-07-31T01:17:32.649Z,67.98
2022-07-31T01:18:32.547Z,67.38
2022-07-31T01:19:42.326Z,67.20
2022-07-31T01:20:33.501Z,67.31
2022-07-31T01:21:34.750Z,67.43
2022-07-31T01:22:32.938Z,67.02
2022-07-31T01:23:32.497Z,67.13
2022-07-31T01:24:32.449Z,67.35
2022-07-31T01:25:32.529Z,67.16
2022-07-31T01:26:32.422Z,67.29
2022-07-31T01:27:53.508Z,67.39
2022-07-31T01:28:32.390Z,67.29
2022-07-31T01:29:32.519Z,67.13
2022-07-31T01:30:32.361Z,66.74
2022-07-31T01:31:32.549Z,66.67
2022-07-31T01:32:32.333Z,66.79
2022-07-31T01:33:32.421Z,66.73
2022-07-31T01:34:32.311Z,66.90
2022-07-31T01:35:32.402Z,66.92
2022-07-31T01:36:32.282Z,66.66
2022-07-31T01:37:32.441Z,65.99
2022-07-31T01:38:32.251Z,66.07
2022-07-31T01:39:34.372Z,65.48
2022-07-31T01:40:32.231Z,65.36
2022-07-31T01:41:32.312Z,65.83
2022-07-31T01:42:32.206Z,65.92
2022-07-31T01:43:32.244Z,66.06
2022-07-31T01:44:32.202Z,65.70
2022-07-31T01:45:34.376Z,65.87
2022-07-31T01:46:32.152Z,65.96
2022-07-31T01:47:33.131Z,65.76
2022-07-31T01:48:32.191Z,66.07
2022-07-31T01:49:32.176Z,66.18
2022-07-31T01:50:42.578Z,66.50
2022-07-31T01:51:33.085Z,66.46
2022-07-31T01:52:32.256Z,66.23
2022-07-31T01:53:32.054Z,66.29
2022-07-31T01:54:32.192Z,66.03
2022-07-31T01:55:32.043Z,66.24
2022-07-31T01:56:33.014Z,66.07
2022-07-31T01:57:31.997Z,65.99
2022-07-31T01:58:32.055Z,65.98
2022-07-31T01:59:32.001Z,65.92
2022-07-31T02:00:34.446Z,65.90
2022-07-31T02:01:32.020Z,65.90
2022-07-31T02:02:54.526Z,66.40
2022-07-31T02:03:43.547Z,66.48
2022-07-31T02:04:32.905Z,66.46
2022-07-31T02:05:32.034Z,66.35
2022-07-31T02:06:31.876Z,66.16
2022-07-31T02:07:32.015Z,66.11
2022-07-31T02:08:31.856Z,65.40
2022-07-31T02:09:31.897Z,65.68
2022-07-31T02:10:31.825Z,65.56
2022-07-31T02:11:31.935Z,66.13
2022-07-31T02:12:33.430Z,65.91
2022-07-31T02:13:31.926Z,65.86
2022-07-31T02:14:31.775Z,65.80
2022-07-31T02:15:31.972Z,65.72
2022-07-31T02:16:31.737Z,65.86
2022-07-31T02:17:31.946Z,65.51
2022-07-31T02:18:31.720Z,65.74
2022-07-31T02:19:31.826Z,65.93
2022-07-31T02:20:31.694Z,65.86
2022-07-31T02:21:31.819Z,66.14
2022-07-31T02:22:31.668Z,66.39
2022-07-31T02:23:31.757Z,66.25
2022-07-31T02:24:31.667Z,65.67
2022-07-31T02:25:52.768Z,65.81
2022-07-31T02:26:31.608Z,65.81
2022-07-31T02:27:57.883Z,65.67
2022-07-31T02:28:32.579Z,65.55
2022-07-31T02:29:31.568Z,65.58
2022-07-31T02:30:39.343Z,65.19
2022-07-31T02:31:32.539Z,65.02
2022-07-31T02:32:31.560Z,64.53
2022-07-31T02:33:31.518Z,64.18
2022-07-31T02:34:33.698Z,64.11
2022-07-31T02:35:31.494Z,64.19
2022-07-31T02:36:31.578Z,64.04
2022-07-31T02:37:31.459Z,63.91
2022-07-31T02:38:31.560Z,64.87
2022-07-31T02:39:31.439Z,63.72
2022-07-31T02:40:31.601Z,63.43
2022-07-31T02:41:31.409Z,63.22
2022-07-31T02:42:31.481Z,63.18
2022-07-31T02:43:31.380Z,63.39
2022-07-31T02:44:31.469Z,63.54
2022-07-31T02:45:31.350Z,63.85
2022-07-31T02:46:52.480Z,63.88
2022-07-31T02:47:31.328Z,63.85
2022-07-31T02:48:31.500Z,63.87
2022-07-31T02:49:31.375Z,64.53
2022-07-31T02:50:31.381Z,63.98
2022-07-31T02:51:31.272Z,64.37
2022-07-31T02:52:32.271Z,64.54
2022-07-31T02:53:31.389Z,64.50
2022-07-31T02:54:31.252Z,64.26
2022-07-31T02:55:31.310Z,63.95
2022-07-31T02:56:31.201Z,63.61
2022-07-31T02:57:31.243Z,63.50
2022-07-31T02:58:31.181Z,63.67
2022-07-31T02:59:31.285Z,63.44
2022-07-31T03:00:31.257Z,62.94
2022-07-31T03:01:31.323Z,62.80
2022-07-31T03:02:34.597Z,63.12
2022-07-31T03:03:32.110Z,63.74
2022-07-31T03:04:31.223Z,63.59
2022-07-31T03:05:31.086Z,63.51
2022-07-31T03:06:31.204Z,63.83
2022-07-31T03:07:31.066Z,63.80
2022-07-31T03:09:40.579Z,63.45
2022-07-31T03:10:40.370Z,63.46
2022-07-31T03:11:40.564Z,63.27
2022-07-31T03:12:40.341Z,63.41
2022-07-31T03:13:40.540Z,63.67
2022-07-31T03:14:40.346Z,64.38
2022-07-31T03:15:40.381Z,64.17
2022-07-31T03:16:40.291Z,63.94
2022-07-31T03:17:40.995Z,63.83
2022-07-31T03:18:40.261Z,63.76
2022-07-31T03:19:40.351Z,64.01
2022-07-31T03:20:40.233Z,64.09
2022-07-31T03:21:40.388Z,64.05
2022-07-31T03:22:40.210Z,64.12
2022-07-31T03:23:40.273Z,64.38
2022-07-31T03:24:40.181Z,64.07
2022-07-31T03:25:40.251Z,64.48
2022-07-31T03:26:40.158Z,64.44
2022-07-31T03:27:40.294Z,64.14
2022-07-31T03:28:40.121Z,64.02
2022-07-31T03:29:43.689Z,64.36
2022-07-31T03:30:40.101Z,63.61
2022-07-31T03:31:40.262Z,63.65
2022-07-31T03:32:40.072Z,63.92
2022-07-31T03:33:40.092Z,64.07
2022-07-31T03:34:40.071Z,63.54
2022-07-31T03:35:44.471Z,63.44
2022-07-31T03:36:40.032Z,63.27
2022-07-31T03:37:40.163Z,63.55
2022-07-31T03:38:42.620Z,63.72
2022-07-31T03:39:40.122Z,63.19
2022-07-31T03:40:39.991Z,63.23
2022-07-31T03:41:40.141Z,63.31
2022-07-31T03:42:39.942Z,63.10
2022-07-31T03:43:47.286Z,63.15
2022-07-31T03:44:40.915Z,63.46
2022-07-31T03:45:40.005Z,63.47
2022-07-31T03:46:39.899Z,63.51
2022-07-31T03:47:40.044Z,63.74
2022-07-31T03:48:39.869Z,63.61
2022-07-31T03:49:39.983Z,63.93
2022-07-31T03:50:39.824Z,64.01
2022-07-31T03:51:39.964Z,64.00
2022-07-31T03:52:39.810Z,64.10
2022-07-31T03:53:40.874Z,64.32
2022-07-31T03:54:39.785Z,64.14
2022-07-31T03:55:40.906Z,64.24
2022-07-31T03:56:39.765Z,64.42
2022-07-31T03:57:39.865Z,64.66
2022-07-31T03:58:39.743Z,64.75
2022-07-31T04:00:00.869Z,64.75
2022-07-31T04:00:39.706Z,64.88
2022-07-31T04:01:57.533Z,65.26
2022-07-31T04:02:40.773Z,65.02
2022-07-31T04:03:39.726Z,64.72
2022-07-31T04:04:39.647Z,64.10
2022-07-31T04:06:00.737Z,63.94
2022-07-31T04:06:39.625Z,64.01
2022-07-31T04:07:39.801Z,64.04
2022-07-31T04:08:39.625Z,64.56
2022-07-31T04:09:39.633Z,65.01
2022-07-31T04:10:39.567Z,65.25
2022-07-31T04:11:39.665Z,64.97
2022-07-31T04:12:39.548Z,64.85
2022-07-31T04:13:39.598Z,64.71
2022-07-31T04:14:39.534Z,64.63
2022-07-31T04:15:39.646Z,64.57
2022-07-31T04:16:39.489Z,64.35
2022-07-31T04:17:39.668Z,64.65
2022-07-31T04:18:39.460Z,64.78
2022-07-31T04:19:39.558Z,64.79
2022-07-31T04:20:39.462Z,64.62
2022-07-31T04:21:39.540Z,64.79
2022-07-31T04:22:39.475Z,64.90
2022-07-31T04:23:39.479Z,64.67
2022-07-31T04:24:40.389Z,64.90
2022-07-31T04:25:39.517Z,64.97
2022-07-31T04:26:39.377Z,65.23
2022-07-31T04:27:45.608Z,65.31
2022-07-31T04:28:40.329Z,65.34
2022-07-31T04:29:39.378Z,65.34
2022-07-31T04:30:39.307Z,65.28
2022-07-31T04:31:39.420Z,65.55
2022-07-31T04:32:39.299Z,65.58
2022-07-31T04:33:48.800Z,65.99
2022-07-31T04:34:40.250Z,66.09
2022-07-31T04:35:39.390Z,65.56
2022-07-31T04:36:39.220Z,65.39
2022-07-31T04:37:39.331Z,65.65
2022-07-31T04:38:40.210Z,66.36
2022-07-31T04:39:40.290Z,65.74
2022-07-31T04:40:39.169Z,65.68
2022-07-31T04:41:39.301Z,65.48
2022-07-31T04:42:39.141Z,65.06
2022-07-31T04:43:39.231Z,64.94
2022-07-31T04:44:39.131Z,65.12
2022-07-31T04:45:39.272Z,65.56
2022-07-31T04:46:39.092Z,65.08
2022-07-31T04:47:39.200Z,64.90
2022-07-31T04:48:39.063Z,65.13
2022-07-31T04:49:39.310Z,65.05
2022-07-31T04:50:39.045Z,65.09
2022-07-31T04:51:40.201Z,64.93
2022-07-31T04:52:39.011Z,65.22
2022-07-31T04:53:39.101Z,65.69
2022-07-31T04:54:38.982Z,65.76
2022-07-31T04:55:40.123Z,65.46
2022-07-31T04:56:38.966Z,65.60
2022-07-31T04:57:39.080Z,65.42
2022-07-31T04:58:38.930Z,65.42
2022-07-31T04:59:59.890Z,64.80
2022-07-31T05:00:39.905Z,64.61
2022-07-31T05:01:39.043Z,64.90
2022-07-31T05:02:38.890Z,65.02
2022-07-31T05:03:40.023Z,64.58
2022-07-31T05:04:38.855Z,64.17
2022-07-31T05:05:38.914Z,64.49
2022-07-31T05:06:38.824Z,64.61
2022-07-31T05:07:39.933Z,64.75
2022-07-31T05:08:38.802Z,65.58
2022-07-31T05:09:38.895Z,65.16
2022-07-31T05:10:38.773Z,65.39
2022-07-31T05:11:38.926Z,64.96
2022-07-31T05:12:38.764Z,64.95
2022-07-31T05:13:38.914Z,64.95
2022-07-31T05:14:38.724Z,65.16
2022-07-31T05:15:38.798Z,65.09
2022-07-31T05:16:38.698Z,65.14
2022-07-31T05:17:38.835Z,65.83
2022-07-31T05:18:38.673Z,65.63
2022-07-31T05:19:38.815Z,65.66
2022-07-31T05:20:38.645Z,66.06
2022-07-31T05:21:46.936Z,66.36
2022-07-31T05:22:39.615Z,66.52
2022-07-31T05:23:38.716Z,66.79
2022-07-31T05:24:38.606Z,66.48
2022-07-31T05:25:39.745Z,66.79
2022-07-31T05:26:38.565Z,67.14
2022-07-31T05:27:39.150Z,66.90
2022-07-31T05:28:38.545Z,66.54
2022-07-31T05:29:38.649Z,66.71
2022-07-31T05:30:38.517Z,66.29
2022-07-31T05:31:38.766Z,65.56
2022-07-31T05:32:39.636Z,65.95
2022-07-31T05:33:38.545Z,66.04
2022-07-31T05:34:38.589Z,66.06
2022-07-31T05:35:38.447Z,66.11
2022-07-31T05:36:39.457Z,66.11
2022-07-31T05:37:39.507Z,66.23
2022-07-31T05:38:38.406Z,66.44
2022-07-31T05:39:38.516Z,66.42
2022-07-31T05:40:38.389Z,66.44
2022-07-31T05:41:38.556Z,66.71
2022-07-31T05:42:38.378Z,66.18
2022-07-31T05:43:38.388Z,66.18
2022-07-31T05:44:38.338Z,66.31
2022-07-31T05:45:40.556Z,66.48
2022-07-31T05:46:38.309Z,66.51
2022-07-31T05:47:40.486Z,66.85
2022-07-31T05:48:38.298Z,66.78
2022-07-31T05:49:38.399Z,65.96
2022-07-31T05:50:38.250Z,65.65
2022-07-31T05:51:38.335Z,65.50
2022-07-31T05:52:38.230Z,65.68
2022-07-31T05:53:38.318Z,65.74
2022-07-31T05:54:38.210Z,65.97
2022-07-31T05:55:38.308Z,66.17
2022-07-31T05:56:38.177Z,66.70
2022-07-31T05:57:38.340Z,66.13
2022-07-31T05:58:38.159Z,66.57
2022-07-31T05:59:39.357Z,66.34
2022-07-31T06:00:38.132Z,65.81
2022-07-31T06:01:38.316Z,65.47
2022-07-31T06:02:38.110Z,65.44
2022-07-31T06:03:50.517Z,65.44
2022-07-31T06:04:39.072Z,65.71
2022-07-31T06:05:38.229Z,65.60
2022-07-31T06:06:38.056Z,65.00
2022-07-31T06:07:38.222Z,65.20
2022-07-31T06:08:38.041Z,64.85
2022-07-31T06:09:38.062Z,63.91
2022-07-31T06:10:37.991Z,62.92
2022-07-31T06:11:38.141Z,63.00
2022-07-31T06:12:37.972Z,63.29
2022-07-31T06:13:38.121Z,63.31
2022-07-31T06:14:37.942Z,63.68
2022-07-31T06:15:38.054Z,63.77
2022-07-31T06:16:37.913Z,63.73
2022-07-31T06:17:44.180Z,63.89
2022-07-31T06:18:37.894Z,63.65
2022-07-31T06:19:37.922Z,63.30
2022-07-31T06:20:37.863Z,63.58
2022-07-31T06:21:37.960Z,63.98
2022-07-31T06:22:37.833Z,63.71
2022-07-31T06:23:37.955Z,63.96
2022-07-31T06:24:38.350Z,64.54
2022-07-31T06:25:39.157Z,64.59
2022-07-31T06:26:37.934Z,65.18
2022-07-31T06:27:37.773Z,65.11
2022-07-31T06:28:46.444Z,64.22
2022-07-31T06:29:42.229Z,64.91
2022-07-31T06:30:37.734Z,64.90
2022-07-31T06:31:37.835Z,64.93
2022-07-31T06:32:37.713Z,65.01
2022-07-31T06:33:38.178Z,64.91
2022-07-31T06:34:37.684Z,63.57
2022-07-31T06:35:37.866Z,63.41
2022-07-31T06:36:37.654Z,63.42
2022-07-31T06:37:37.745Z,63.49
2022-07-31T06:38:37.637Z,62.81
2022-07-31T06:39:55.669Z,64.13
2022-07-31T06:40:38.634Z,64.70
2022-07-31T06:41:38.744Z,64.93
2022-07-31T06:42:37.585Z,61.50
2022-07-31T06:43:37.755Z,61.26
2022-07-31T06:44:45.916Z,62.95
2022-07-31T06:45:51.165Z,62.73
2022-07-31T06:46:48.639Z,59.50
2022-07-31T06:47:38.519Z,61.20
2022-07-31T06:48:37.696Z,62.08
2022-07-31T06:49:37.577Z,61.37
2022-07-31T06:50:37.620Z,59.06
2022-07-31T06:51:37.458Z,59.63
2022-07-31T06:52:37.518Z,58.54
2022-07-31T06:53:37.441Z,59.57
2022-07-31T06:54:37.496Z,61.79
2022-07-31T06:55:37.407Z,58.83
2022-07-31T06:56:38.395Z,57.71
2022-07-31T06:57:37.498Z,59.03
2022-07-31T06:58:37.396Z,58.72
2022-07-31T06:59:39.978Z,59.38
2022-07-31T07:00:37.351Z,62.00
2022-07-31T07:01:37.533Z,57.60
2022-07-31T07:02:37.317Z,59.68
2022-07-31T07:03:37.468Z,57.84
2022-07-31T07:05:04.558Z,58.69
2022-07-31T07:05:38.281Z,56.58
2022-07-31T07:06:37.399Z,57.41
2022-07-31T07:07:37.249Z,57.67
2022-07-31T07:08:37.439Z,59.96
2022-07-31T07:09:37.242Z,58.76
2022-07-31T07:10:37.276Z,59.45
2022-07-31T07:11:37.198Z,58.07
2022-07-31T07:12:37.310Z,55.80
2022-07-31T07:13:45.965Z,55.70
2022-07-31T07:14:38.179Z,56.10
2022-07-31T07:15:39.360Z,58.07
2022-07-31T07:16:37.130Z,60.19
2022-07-31T07:17:37.248Z,56.78
2022-07-31T07:18:37.101Z,58.37
2022-07-31T07:19:37.189Z,59.47
2022-07-31T07:20:37.125Z,55.27
2022-07-31T07:21:38.241Z,55.94
2022-07-31T07:22:37.052Z,57.09
2022-07-31T07:23:37.151Z,56.83
2022-07-31T07:24:37.022Z,57.28
2022-07-31T07:25:37.097Z,57.56
2022-07-31T07:26:37.012Z,57.58
2022-07-31T07:27:37.142Z,57.70
2022-07-31T07:28:36.963Z,58.24
2022-07-31T07:29:37.068Z,58.71
2022-07-31T07:30:36.932Z,59.30
2022-07-31T07:31:37.102Z,59.04
2022-07-31T07:32:36.932Z,59.33
2022-07-31T07:33:39.530Z,58.98
2022-07-31T07:34:36.891Z,58.97
2022-07-31T07:35:36.962Z,59.95
2022-07-31T07:36:36.854Z,59.69
2022-07-31T07:37:39.109Z,58.34
2022-07-31T07:38:36.852Z,57.59
2022-07-31T07:39:36.935Z,56.51
2022-07-31T07:40:36.812Z,56.75
2022-07-31T07:41:36.973Z,57.93
2022-07-31T07:42:36.782Z,58.53
2022-07-31T07:43:36.862Z,57.91
2022-07-31T07:44:36.753Z,59.64
2022-07-31T07:45:36.843Z,59.92
2022-07-31T07:46:36.714Z,60.10
2022-07-31T07:47:53.822Z,56.84
2022-07-31T07:48:37.825Z,57.25
2022-07-31T07:49:36.705Z,54.97
2022-07-31T07:50:57.757Z,55.38
2022-07-31T07:51:36.655Z,56.46
2022-07-31T07:52:39.930Z,57.17
2022-07-31T07:53:37.639Z,56.47
2022-07-31T07:54:36.805Z,56.30
2022-07-31T07:55:37.800Z,56.72
2022-07-31T07:56:36.686Z,57.03
2022-07-31T07:57:36.586Z,57.70
2022-07-31T07:58:36.727Z,58.38
2022-07-31T07:59:36.563Z,58.46
2022-07-31T08:00:37.745Z,58.88
2022-07-31T08:01:36.588Z,58.78
2022-07-31T08:02:36.687Z,58.51
2022-07-31T08:03:49.637Z,57.11
2022-07-31T08:04:37.497Z,57.49
2022-07-31T08:05:36.598Z,57.44
2022-07-31T08:06:36.486Z,56.73
2022-07-31T08:07:42.590Z,57.67
2022-07-31T08:08:37.439Z,56.99
2022-07-31T08:09:36.458Z,59.73
2022-07-31T08:10:36.418Z,56.86
2022-07-31T08:11:36.506Z,56.61
2022-07-31T08:12:36.415Z,57.52
2022-07-31T08:13:36.537Z,56.23
2022-07-31T08:14:36.379Z,55.54
2022-07-31T08:15:36.508Z,56.41
2022-07-31T08:16:36.338Z,55.65
2022-07-31T08:17:36.460Z,53.91
2022-07-31T08:18:36.318Z,53.83
2022-07-31T08:19:36.346Z,53.95
2022-07-31T08:20:36.278Z,54.97
2022-07-31T08:21:38.469Z,54.87
2022-07-31T08:22:36.255Z,54.84
2022-07-31T08:23:36.479Z,54.31
2022-07-31T08:24:36.230Z,54.11
2022-07-31T08:25:36.351Z,55.21
2022-07-31T08:26:36.201Z,55.83
2022-07-31T08:27:40.451Z,55.24
2022-07-31T08:28:36.281Z,54.41
2022-07-31T08:29:37.111Z,53.22
2022-07-31T08:30:36.149Z,53.72
2022-07-31T08:31:36.262Z,54.99
2022-07-31T08:32:36.148Z,54.06
2022-07-31T08:33:36.310Z,55.35
2022-07-31T08:34:39.046Z,53.83
2022-07-31T08:35:37.081Z,54.13
2022-07-31T08:36:36.192Z,52.62
2022-07-31T08:37:51.094Z,51.95
2022-07-31T08:38:37.044Z,52.23
2022-07-31T08:39:36.031Z,52.51
2022-07-31T08:40:43.000Z,51.96
2022-07-31T08:41:37.005Z,52.06
2022-07-31T08:42:36.102Z,52.98
2022-07-31T08:44:02.990Z,53.82
2022-07-31T08:44:36.975Z,54.12
2022-07-31T08:45:40.177Z,50.49
2022-07-31T08:46:35.972Z,53.59
2022-07-31T08:47:36.036Z,51.23
2022-07-31T08:48:35.913Z,50.53
2022-07-31T08:49:36.019Z,50.83
2022-07-31T08:50:35.885Z,52.28
2022-07-31T08:51:51.143Z,52.40
2022-07-31T08:52:36.885Z,52.70
2022-07-31T08:53:36.044Z,52.38
2022-07-31T08:54:35.834Z,51.89
2022-07-31T08:55:54.962Z,52.04
2022-07-31T08:56:36.815Z,51.66
2022-07-31T08:57:35.917Z,52.50
2022-07-31T08:58:39.290Z,52.41
2022-07-31T08:59:35.766Z,53.28
2022-07-31T09:00:35.841Z,54.87
2022-07-31T09:01:35.787Z,54.14
2022-07-31T09:02:35.846Z,54.80
2022-07-31T09:03:35.726Z,54.86
2022-07-31T09:04:35.837Z,52.24
2022-07-31T09:05:42.527Z,52.59
2022-07-31T09:06:36.685Z,53.10
2022-07-31T09:07:35.790Z,53.29
2022-07-31T09:08:35.660Z,52.95
2022-07-31T09:09:51.324Z,52.55
2022-07-31T09:10:36.634Z,53.24
2022-07-31T09:11:35.768Z,53.31
2022-07-31T09:12:35.600Z,52.61
2022-07-31T09:13:35.805Z,52.73
2022-07-31T09:14:35.579Z,53.26
2022-07-31T09:15:35.775Z,52.40
2022-07-31T09:16:35.547Z,51.70
2022-07-31T09:17:35.670Z,52.07
2022-07-31T09:18:35.520Z,52.88
2022-07-31T09:19:52.756Z,53.69
2022-07-31T09:20:36.517Z,53.63
2022-07-31T09:21:35.650Z,53.78
2022-07-31T09:22:35.468Z,52.49
2022-07-31T09:23:35.609Z,52.35
2022-07-31T09:24:38.146Z,52.06
2022-07-31T09:25:35.441Z,52.04
2022-07-31T09:26:35.640Z,52.43
2022-07-31T09:27:35.403Z,50.90
2022-07-31T09:28:36.448Z,51.31
2022-07-31T09:29:35.380Z,51.94
2022-07-31T09:30:35.449Z,49.86
2022-07-31T09:31:36.370Z,50.70
2022-07-31T09:32:35.480Z,50.67
2022-07-31T09:33:35.330Z,50.63
2022-07-31T09:34:35.410Z,50.68
2022-07-31T09:35:35.303Z,50.29
2022-07-31T09:36:35.460Z,48.53
2022-07-31T09:37:35.298Z,48.63
2022-07-31T09:38:35.380Z,50.23
2022-07-31T09:39:35.876Z,51.57
2022-07-31T09:40:35.320Z,52.52
2022-07-31T09:42:01.596Z,52.62
2022-07-31T09:42:36.233Z,53.53
2022-07-31T09:43:35.201Z,53.58
2022-07-31T09:44:36.215Z,53.39
2022-07-31T09:45:35.264Z,53.14
2022-07-31T09:46:36.152Z,51.46
2022-07-31T09:47:35.303Z,51.16
2022-07-31T09:48:35.175Z,51.54
2022-07-31T09:49:35.299Z,50.21
2022-07-31T09:50:35.106Z,50.06
2022-07-31T09:51:35.164Z,50.55
2022-07-31T09:52:35.093Z,49.59
2022-07-31T09:53:38.403Z,48.89
2022-07-31T09:54:36.073Z,49.71
2022-07-31T09:55:35.143Z,49.79
2022-07-31T09:56:35.023Z,49.87
2022-07-31T09:57:35.175Z,49.05
2022-07-31T09:58:35.000Z,48.18
2022-07-31T09:59:35.110Z,48.98
2022-07-31T10:00:35.079Z,48.62
2022-07-31T10:01:35.140Z,49.65
2022-07-31T10:02:34.935Z,49.48
2022-07-31T10:03:35.116Z,47.06
2022-07-31T10:04:34.923Z,47.87
2022-07-31T10:05:35.015Z,47.08
2022-07-31T10:06:34.908Z,48.64
2022-07-31T10:07:35.057Z,48.36
2022-07-31T10:08:34.865Z,49.23
2022-07-31T10:09:35.910Z,48.29
2022-07-31T10:10:34.845Z,47.94
2022-07-31T10:11:34.918Z,49.17
2022-07-31T10:12:34.846Z,49.40
2022-07-31T10:13:34.957Z,48.73
2022-07-31T10:14:34.796Z,45.94
2022-07-31T10:15:35.918Z,46.57
2022-07-31T10:16:34.760Z,47.22
2022-07-31T10:17:36.161Z,47.01
2022-07-31T10:18:35.793Z,47.41
2022-07-31T10:19:34.758Z,48.65
2022-07-31T10:20:34.717Z,47.95
2022-07-31T10:21:36.888Z,47.95
2022-07-31T10:22:34.678Z,46.34
2022-07-31T10:23:34.846Z,46.08
2022-07-31T10:24:34.678Z,47.21
2022-07-31T10:25:34.767Z,46.90
2022-07-31T10:26:59.239Z,47.68
2022-07-31T10:27:35.942Z,47.17
2022-07-31T10:28:34.603Z,48.26
2022-07-31T10:29:34.653Z,49.46
2022-07-31T10:30:34.590Z,48.01
2022-07-31T10:31:34.672Z,50.71
2022-07-31T10:32:34.560Z,49.20
2022-07-31T10:33:44.178Z,48.05
2022-07-31T10:34:35.530Z,47.36
2022-07-31T10:35:34.700Z,47.93
2022-07-31T10:36:34.489Z,47.91
2022-07-31T10:37:34.582Z,48.70
2022-07-31T10:38:38.217Z,48.82
2022-07-31T10:39:34.464Z,49.35
2022-07-31T10:40:34.582Z,48.23
2022-07-31T10:41:34.471Z,47.29
2022-07-31T10:42:34.517Z,46.37
2022-07-31T10:43:34.403Z,46.14
2022-07-31T10:44:38.481Z,48.51
2022-07-31T10:45:34.371Z,47.45
2022-07-31T10:46:36.578Z,46.27
2022-07-31T10:47:34.361Z,45.42
2022-07-31T10:48:34.519Z,45.47
2022-07-31T10:49:34.356Z,45.88
2022-07-31T10:50:34.472Z,45.32
2022-07-31T10:51:34.292Z,45.45
2022-07-31T10:52:34.394Z,45.48
2022-07-31T10:53:50.278Z,46.16
2022-07-31T10:54:35.463Z,46.12
2022-07-31T10:55:34.394Z,46.39
2022-07-31T10:56:34.331Z,46.46
2022-07-31T10:57:57.730Z,47.28
2022-07-31T10:58:34.226Z,48.52
2022-07-31T10:59:34.263Z,46.57
2022-07-31T11:00:34.184Z,47.08
2022-07-31T11:01:34.330Z,47.62
2022-07-31T11:02:34.160Z,46.08
2022-07-31T11:03:34.347Z,47.86
2022-07-31T11:04:34.163Z,47.74
2022-07-31T11:06:00.877Z,48.15
2022-07-31T11:06:35.110Z,47.37
2022-07-31T11:07:34.216Z,50.95
2022-07-31T11:08:34.075Z,45.92
2022-07-31T11:09:34.197Z,47.51
2022-07-31T11:10:35.066Z,45.95
2022-07-31T11:11:35.196Z,45.99
2022-07-31T11:12:34.023Z,44.69
2022-07-31T11:13:37.251Z,45.62
2022-07-31T11:14:33.996Z,43.94
2022-07-31T11:15:34.038Z,43.96
2022-07-31T11:16:33.996Z,43.99
2022-07-31T11:18:21.833Z,43.92
2022-07-31T11:18:34.975Z,43.73
2022-07-31T11:19:33.928Z,43.40
2022-07-31T11:20:34.908Z,44.07
2022-07-31T11:21:41.078Z,44.01
2022-07-31T11:22:34.908Z,43.43
2022-07-31T11:23:36.089Z,43.04
2022-07-31T11:24:33.900Z,43.07
2022-07-31T11:25:33.929Z,43.88
2022-07-31T11:26:41.325Z,44.74
2022-07-31T11:27:34.854Z,45.00
2022-07-31T11:28:33.949Z,43.33
2022-07-31T11:29:59.395Z,43.76
2022-07-31T11:30:34.790Z,43.67
2022-07-31T11:31:33.773Z,45.76
2022-07-31T11:32:33.950Z,44.27
2022-07-31T11:33:42.249Z,44.28
2022-07-31T11:34:34.741Z,44.02
2022-07-31T11:35:34.821Z,44.62
2022-07-31T11:36:33.711Z,42.54
2022-07-31T11:37:46.187Z,43.17
2022-07-31T11:38:34.692Z,41.81
2022-07-31T11:39:36.405Z,43.31
2022-07-31T11:40:33.660Z,43.21
2022-07-31T11:41:40.435Z,41.93
2022-07-31T11:42:36.321Z,42.11
2022-07-31T11:43:33.743Z,41.01
2022-07-31T11:44:33.603Z,40.18
2022-07-31T11:45:33.783Z,40.88
2022-07-31T11:46:33.593Z,40.52
2022-07-31T11:48:11.734Z,40.36
2022-07-31T11:48:40.006Z,40.43
2022-07-31T11:49:44.143Z,39.90
2022-07-31T11:50:34.533Z,39.71
2022-07-31T11:51:33.584Z,41.30
2022-07-31T11:52:37.446Z,43.39
2022-07-31T11:53:33.496Z,42.24
2022-07-31T11:54:33.634Z,43.45
2022-07-31T11:55:33.463Z,43.08
2022-07-31T11:56:33.524Z,41.61
2022-07-31T11:57:52.372Z,41.54
2022-07-31T11:58:34.425Z,39.09
2022-07-31T11:59:45.506Z,39.87
2022-07-31T12:00:34.424Z,40.87
2022-07-31T12:01:33.466Z,39.92
2022-07-31T12:02:33.421Z,41.17
2022-07-31T12:03:33.496Z,39.89
2022-07-31T12:04:33.347Z,41.19
2022-07-31T12:05:38.890Z,39.67
2022-07-31T12:06:36.661Z,39.97
2022-07-31T12:07:33.467Z,43.46
2022-07-31T12:08:33.306Z,40.51
2022-07-31T12:10:01.310Z,40.81
2022-07-31T12:10:34.462Z,41.35
2022-07-31T12:11:33.277Z,41.02
2022-07-31T12:12:33.408Z,41.98
2022-07-31T12:13:33.228Z,40.51
2022-07-31T12:14:33.419Z,40.06
2022-07-31T12:15:33.200Z,41.08
2022-07-31T12:16:33.270Z,40.33
2022-07-31T12:17:33.199Z,41.19
2022-07-31T12:18:33.309Z,40.58
2022-07-31T12:19:37.568Z,40.37
2022-07-31T12:20:36.471Z,40.66
2022-07-31T12:21:33.277Z,40.68
2022-07-31T12:22:33.119Z,41.78
2022-07-31T12:23:41.207Z,41.42
2022-07-31T12:24:34.089Z,42.05
2022-07-31T12:25:33.182Z,40.88
2022-07-31T12:26:33.061Z,40.90
2022-07-31T12:27:33.221Z,41.60
2022-07-31T12:28:33.040Z,40.64
2022-07-31T12:29:33.083Z,41.48
2022-07-31T12:30:33.014Z,40.52
2022-07-31T12:31:33.091Z,40.47
2022-07-31T12:32:32.981Z,41.33
2022-07-31T12:33:33.133Z,41.46
2022-07-31T12:34:32.982Z,42.81
2022-07-31T12:35:44.555Z,41.50
2022-07-31T12:36:33.933Z,41.95
2022-07-31T12:37:33.014Z,42.03
2022-07-31T12:38:45.318Z,40.27
2022-07-31T12:39:54.516Z,41.16
2022-07-31T12:40:34.034Z,41.87
2022-07-31T12:41:32.872Z,43.50
2022-07-31T12:42:36.477Z,43.26
2022-07-31T12:43:33.835Z,41.80
2022-07-31T12:44:32.965Z,41.60
2022-07-31T12:45:32.826Z,40.70
2022-07-31T12:46:32.901Z,40.59
2022-07-31T12:47:32.785Z,39.94
2022-07-31T12:48:38.457Z,40.16
2022-07-31T12:49:33.801Z,40.30
2022-07-31T12:50:33.954Z,40.26
2022-07-31T12:51:44.766Z,40.96
2022-07-31T12:52:33.795Z,40.81
2022-07-31T12:53:32.875Z,42.86